sensor_id;sensor_type;location;lat;lon;timestamp;P1;durP1;ratioP1;P2;durP2;ratioP2
59880;SDS011;45751;51.380;10.326;2023-06-22T00:00:10;15.50;;;8.18;;
59880;SDS011;45751;51.380;10.326;2023-06-22T00:02:38;14.75;;;7.55;;
59880;SDS011;45751;51.380;10.326;2023-06-22T00:05:05;15.82;;;7.45;;
59880;SDS011;45751;51.380;10.326;2023-06-22T00:07:32;14.18;;;8.45;;
59880;SDS011;45751;51.380;10.326;2023-06-22T00:09:59;14.25;;;7.40;;
59880;SDS011;45751;51.380;10.326;2023-06-22T00:12:26;17.45;;;8.75;;
59880;SDS011;45751;51.380;10.326;2023-06-22T00:14:53;14.45;;;7.22;;
59880;SDS011;45751;51.380;10.326;2023-06-22T00:17:20;14.88;;;7.38;;
59880;SDS011;45751;51.380;10.326;2023-06-22T00:19:47;13.30;;;6.97;;
59880;SDS011;45751;51.380;10.326;2023-06-22T00:22:14;15.10;;;7.70;;
59880;SDS011;45751;51.380;10.326;2023-06-22T00:24:43;14.07;;;7.63;;
59880;SDS011;45751;51.380;10.326;2023-06-22T00:27:10;15.60;;;7.85;;
59880;SDS011;45751;51.380;10.326;2023-06-22T00:29:37;13.75;;;7.47;;
59880;SDS011;45751;51.380;10.326;2023-06-22T00:32:04;14.88;;;7.43;;
59880;SDS011;45751;51.380;10.326;2023-06-22T00:34:31;16.00;;;7.10;;
59880;SDS011;45751;51.380;10.326;2023-06-22T00:36:58;16.38;;;7.97;;
59880;SDS011;45751;51.380;10.326;2023-06-22T00:39:25;16.08;;;8.00;;
59880;SDS011;45751;51.380;10.326;2023-06-22T00:41:52;13.30;;;7.38;;
59880;SDS011;45751;51.380;10.326;2023-06-22T00:44:19;14.40;;;7.63;;
59880;SDS011;45751;51.380;10.326;2023-06-22T00:46:46;16.27;;;8.02;;
59880;SDS011;45751;51.380;10.326;2023-06-22T00:49:13;13.70;;;7.13;;
59880;SDS011;45751;51.380;10.326;2023-06-22T00:51:40;13.60;;;6.55;;
59880;SDS011;45751;51.380;10.326;2023-06-22T00:54:11;14.60;;;7.47;;
59880;SDS011;45751;51.380;10.326;2023-06-22T00:56:42;13.70;;;6.75;;
59880;SDS011;45751;51.380;10.326;2023-06-22T00:59:09;15.20;;;8.30;;
59880;SDS011;45751;51.380;10.326;2023-06-22T01:01:38;14.15;;;7.38;;
59880;SDS011;45751;51.380;10.326;2023-06-22T01:04:07;15.55;;;7.50;;
59880;SDS011;45751;51.380;10.326;2023-06-22T01:06:38;15.35;;;7.85;;
59880;SDS011;45751;51.380;10.326;2023-06-22T01:09:15;14.23;;;6.85;;
59880;SDS011;45751;51.380;10.326;2023-06-22T01:11:50;15.93;;;8.05;;
59880;SDS011;45751;51.380;10.326;2023-06-22T01:14:28;15.45;;;8.18;;
59880;SDS011;45751;51.380;10.326;2023-06-22T01:17:11;17.40;;;9.20;;
59880;SDS011;45751;51.380;10.326;2023-06-22T01:22:39;18.63;;;7.47;;
59880;SDS011;45751;51.380;10.326;2023-06-22T01:25:48;13.82;;;6.75;;
59880;SDS011;45751;51.380;10.326;2023-06-22T01:31:25;14.68;;;7.32;;
59880;SDS011;45751;51.380;10.326;2023-06-22T01:34:04;14.23;;;7.05;;
59880;SDS011;45751;51.380;10.326;2023-06-22T01:36:32;17.10;;;7.30;;
59880;SDS011;45751;51.380;10.326;2023-06-22T01:39:00;14.98;;;6.75;;
59880;SDS011;45751;51.380;10.326;2023-06-22T01:41:30;13.32;;;6.85;;
59880;SDS011;45751;51.380;10.326;2023-06-22T01:44:00;16.13;;;7.35;;
59880;SDS011;45751;51.380;10.326;2023-06-22T01:46:28;15.98;;;7.75;;
59880;SDS011;45751;51.380;10.326;2023-06-22T01:48:55;16.65;;;8.13;;
59880;SDS011;45751;51.380;10.326;2023-06-22T01:51:22;18.08;;;9.65;;
59880;SDS011;45751;51.380;10.326;2023-06-22T01:53:50;17.48;;;8.18;;
59880;SDS011;45751;51.380;10.326;2023-06-22T01:56:18;17.77;;;7.55;;
59880;SDS011;45751;51.380;10.326;2023-06-22T01:58:48;19.23;;;8.05;;
59880;SDS011;45751;51.380;10.326;2023-06-22T02:01:23;14.95;;;8.00;;
59880;SDS011;45751;51.380;10.326;2023-06-22T02:03:58;19.42;;;8.23;;
59880;SDS011;45751;51.380;10.326;2023-06-22T02:06:33;15.77;;;8.10;;
59880;SDS011;45751;51.380;10.326;2023-06-22T02:09:11;14.10;;;7.03;;
59880;SDS011;45751;51.380;10.326;2023-06-22T02:11:41;14.65;;;7.95;;
59880;SDS011;45751;51.380;10.326;2023-06-22T02:14:10;15.65;;;7.55;;
59880;SDS011;45751;51.380;10.326;2023-06-22T02:16:39;15.40;;;8.13;;
59880;SDS011;45751;51.380;10.326;2023-06-22T02:19:08;13.13;;;6.63;;
59880;SDS011;45751;51.380;10.326;2023-06-22T02:21:35;14.18;;;7.43;;
59880;SDS011;45751;51.380;10.326;2023-06-22T02:24:02;13.35;;;7.05;;
59880;SDS011;45751;51.380;10.326;2023-06-22T02:26:30;13.80;;;7.13;;
59880;SDS011;45751;51.380;10.326;2023-06-22T02:31:27;14.90;;;6.82;;
59880;SDS011;45751;51.380;10.326;2023-06-22T02:33:58;12.55;;;6.63;;
59880;SDS011;45751;51.380;10.326;2023-06-22T02:36:27;12.93;;;7.80;;
59880;SDS011;45751;51.380;10.326;2023-06-22T02:38:58;12.80;;;6.80;;
59880;SDS011;45751;51.380;10.326;2023-06-22T02:41:27;13.00;;;7.15;;
59880;SDS011;45751;51.380;10.326;2023-06-22T02:43:55;15.63;;;7.05;;
59880;SDS011;45751;51.380;10.326;2023-06-22T02:46:22;13.57;;;7.22;;
59880;SDS011;45751;51.380;10.326;2023-06-22T02:48:50;15.80;;;6.85;;
59880;SDS011;45751;51.380;10.326;2023-06-22T02:51:19;13.52;;;6.85;;
59880;SDS011;45751;51.380;10.326;2023-06-22T02:53:49;14.30;;;7.32;;
59880;SDS011;45751;51.380;10.326;2023-06-22T02:56:18;17.58;;;6.80;;
59880;SDS011;45751;51.380;10.326;2023-06-22T02:58:54;14.30;;;7.60;;
59880;SDS011;45751;51.380;10.326;2023-06-22T03:01:30;12.15;;;5.97;;
59880;SDS011;45751;51.380;10.326;2023-06-22T03:04:04;14.65;;;6.93;;
59880;SDS011;45751;51.380;10.326;2023-06-22T03:06:35;16.58;;;7.75;;
59880;SDS011;45751;51.380;10.326;2023-06-22T03:09:03;13.80;;;7.60;;
59880;SDS011;45751;51.380;10.326;2023-06-22T03:14:00;14.07;;;7.35;;
59880;SDS011;45751;51.380;10.326;2023-06-22T03:16:31;16.52;;;7.47;;
59880;SDS011;45751;51.380;10.326;2023-06-22T03:18:59;14.23;;;7.47;;
59880;SDS011;45751;51.380;10.326;2023-06-22T03:21:29;12.93;;;7.20;;
59880;SDS011;45751;51.380;10.326;2023-06-22T03:23:59;15.45;;;7.85;;
59880;SDS011;45751;51.380;10.326;2023-06-22T03:26:26;14.13;;;8.00;;
59880;SDS011;45751;51.380;10.326;2023-06-22T03:28:53;14.07;;;7.50;;
59880;SDS011;45751;51.380;10.326;2023-06-22T03:31:29;14.93;;;7.72;;
59880;SDS011;45751;51.380;10.326;2023-06-22T03:33:56;17.00;;;8.00;;
59880;SDS011;45751;51.380;10.326;2023-06-22T03:36:23;14.23;;;8.40;;
59880;SDS011;45751;51.380;10.326;2023-06-22T03:38:57;16.65;;;8.43;;
59880;SDS011;45751;51.380;10.326;2023-06-22T03:41:24;18.08;;;7.28;;
59880;SDS011;45751;51.380;10.326;2023-06-22T03:43:52;14.82;;;7.65;;
59880;SDS011;45751;51.380;10.326;2023-06-22T03:46:19;14.10;;;7.63;;
59880;SDS011;45751;51.380;10.326;2023-06-22T03:48:48;16.33;;;7.72;;
59880;SDS011;45751;51.380;10.326;2023-06-22T03:51:15;15.27;;;8.70;;
59880;SDS011;45751;51.380;10.326;2023-06-22T03:53:45;19.93;;;8.63;;
59880;SDS011;45751;51.380;10.326;2023-06-22T03:56:19;14.52;;;8.27;;
59880;SDS011;45751;51.380;10.326;2023-06-22T03:58:48;16.73;;;8.35;;
59880;SDS011;45751;51.380;10.326;2023-06-22T04:01:15;16.17;;;8.52;;
59880;SDS011;45751;51.380;10.326;2023-06-22T04:03:45;20.48;;;8.35;;
59880;SDS011;45751;51.380;10.326;2023-06-22T04:06:17;15.32;;;8.65;;
59880;SDS011;45751;51.380;10.326;2023-06-22T04:08:45;15.35;;;8.57;;
59880;SDS011;45751;51.380;10.326;2023-06-22T04:11:19;15.65;;;8.82;;
59880;SDS011;45751;51.380;10.326;2023-06-22T04:13:46;15.93;;;8.43;;
59880;SDS011;45751;51.380;10.326;2023-06-22T04:16:15;15.25;;;8.98;;
59880;SDS011;45751;51.380;10.326;2023-06-22T04:18:42;16.92;;;9.05;;
59880;SDS011;45751;51.380;10.326;2023-06-22T04:21:09;14.77;;;8.55;;
59880;SDS011;45751;51.380;10.326;2023-06-22T04:23:36;20.27;;;9.93;;
59880;SDS011;45751;51.380;10.326;2023-06-22T04:26:03;15.80;;;9.65;;
59880;SDS011;45751;51.380;10.326;2023-06-22T04:28:35;21.02;;;9.82;;
59880;SDS011;45751;51.380;10.326;2023-06-22T04:31:02;17.92;;;11.00;;
59880;SDS011;45751;51.380;10.326;2023-06-22T04:33:31;18.15;;;9.75;;
59880;SDS011;45751;51.380;10.326;2023-06-22T04:35:59;17.67;;;9.57;;
59880;SDS011;45751;51.380;10.326;2023-06-22T04:38:30;18.45;;;10.30;;
59880;SDS011;45751;51.380;10.326;2023-06-22T04:40:59;19.75;;;9.95;;
59880;SDS011;45751;51.380;10.326;2023-06-22T04:43:29;16.10;;;8.77;;
59880;SDS011;45751;51.380;10.326;2023-06-22T04:45:57;17.52;;;10.15;;
59880;SDS011;45751;51.380;10.326;2023-06-22T04:48:29;16.02;;;9.40;;
59880;SDS011;45751;51.380;10.326;2023-06-22T04:51:02;17.00;;;9.63;;
59880;SDS011;45751;51.380;10.326;2023-06-22T04:53:31;19.10;;;10.20;;
59880;SDS011;45751;51.380;10.326;2023-06-22T04:55:58;22.98;;;11.27;;
59880;SDS011;45751;51.380;10.326;2023-06-22T04:58:25;24.77;;;12.10;;
59880;SDS011;45751;51.380;10.326;2023-06-22T05:01:01;17.13;;;10.07;;
59880;SDS011;45751;51.380;10.326;2023-06-22T05:03:38;19.45;;;9.98;;
59880;SDS011;45751;51.380;10.326;2023-06-22T05:06:08;20.42;;;9.63;;
59880;SDS011;45751;51.380;10.326;2023-06-22T05:08:38;16.77;;;9.30;;
59880;SDS011;45751;51.380;10.326;2023-06-22T05:11:05;19.77;;;8.93;;
59880;SDS011;45751;51.380;10.326;2023-06-22T05:13:34;16.25;;;8.35;;
59880;SDS011;45751;51.380;10.326;2023-06-22T05:16:01;16.27;;;8.85;;
59880;SDS011;45751;51.380;10.326;2023-06-22T05:18:29;19.65;;;8.90;;
59880;SDS011;45751;51.380;10.326;2023-06-22T05:20:58;17.30;;;9.30;;
59880;SDS011;45751;51.380;10.326;2023-06-22T05:23:26;16.13;;;8.73;;
59880;SDS011;45751;51.380;10.326;2023-06-22T05:25:52;17.08;;;9.27;;
59880;SDS011;45751;51.380;10.326;2023-06-22T05:28:21;20.60;;;10.77;;
59880;SDS011;45751;51.380;10.326;2023-06-22T05:30:49;17.80;;;10.13;;
59880;SDS011;45751;51.380;10.326;2023-06-22T05:33:16;17.05;;;10.43;;
59880;SDS011;45751;51.380;10.326;2023-06-22T05:35:43;19.23;;;9.27;;
59880;SDS011;45751;51.380;10.326;2023-06-22T05:38:10;18.50;;;9.50;;
59880;SDS011;45751;51.380;10.326;2023-06-22T05:40:37;16.48;;;9.52;;
59880;SDS011;45751;51.380;10.326;2023-06-22T05:43:04;22.02;;;10.95;;
59880;SDS011;45751;51.380;10.326;2023-06-22T05:45:31;21.67;;;10.48;;
59880;SDS011;45751;51.380;10.326;2023-06-22T05:47:57;20.13;;;10.85;;
59880;SDS011;45751;51.380;10.326;2023-06-22T05:50:24;20.30;;;10.88;;
59880;SDS011;45751;51.380;10.326;2023-06-22T05:52:51;23.75;;;10.93;;
59880;SDS011;45751;51.380;10.326;2023-06-22T05:55:18;20.45;;;10.40;;
59880;SDS011;45751;51.380;10.326;2023-06-22T05:57:45;20.52;;;10.77;;
59880;SDS011;45751;51.380;10.326;2023-06-22T06:00:12;17.33;;;10.30;;
59880;SDS011;45751;51.380;10.326;2023-06-22T06:02:39;19.98;;;10.30;;
59880;SDS011;45751;51.380;10.326;2023-06-22T06:05:11;20.35;;;11.48;;
59880;SDS011;45751;51.380;10.326;2023-06-22T06:07:40;18.60;;;10.55;;
59880;SDS011;45751;51.380;10.326;2023-06-22T06:10:08;22.70;;;12.05;;
59880;SDS011;45751;51.380;10.326;2023-06-22T06:12:36;21.65;;;10.80;;
59880;SDS011;45751;51.380;10.326;2023-06-22T06:15:03;18.13;;;10.60;;
59880;SDS011;45751;51.380;10.326;2023-06-22T06:17:31;21.73;;;11.85;;
59880;SDS011;45751;51.380;10.326;2023-06-22T06:20:01;23.88;;;14.18;;
59880;SDS011;45751;51.380;10.326;2023-06-22T06:22:30;26.40;;;15.77;;
59880;SDS011;45751;51.380;10.326;2023-06-22T06:24:57;26.45;;;13.32;;
59880;SDS011;45751;51.380;10.326;2023-06-22T06:27:24;20.13;;;10.82;;
59880;SDS011;45751;51.380;10.326;2023-06-22T06:29:55;18.55;;;11.40;;
59880;SDS011;45751;51.380;10.326;2023-06-22T06:32:22;22.25;;;12.20;;
59880;SDS011;45751;51.380;10.326;2023-06-22T06:34:49;20.02;;;11.30;;
59880;SDS011;45751;51.380;10.326;2023-06-22T06:37:16;20.88;;;11.02;;
59880;SDS011;45751;51.380;10.326;2023-06-22T06:39:44;21.83;;;11.55;;
59880;SDS011;45751;51.380;10.326;2023-06-22T06:42:11;17.92;;;11.10;;
59880;SDS011;45751;51.380;10.326;2023-06-22T06:44:39;20.52;;;12.27;;
59880;SDS011;45751;51.380;10.326;2023-06-22T06:47:06;20.60;;;11.48;;
59880;SDS011;45751;51.380;10.326;2023-06-22T06:49:33;18.55;;;11.43;;
59880;SDS011;45751;51.380;10.326;2023-06-22T06:52:00;18.05;;;10.35;;
59880;SDS011;45751;51.380;10.326;2023-06-22T06:54:27;18.48;;;10.18;;
59880;SDS011;45751;51.380;10.326;2023-06-22T06:56:54;17.88;;;10.30;;
59880;SDS011;45751;51.380;10.326;2023-06-22T06:59:21;20.25;;;10.93;;
59880;SDS011;45751;51.380;10.326;2023-06-22T07:01:48;20.33;;;11.68;;
59880;SDS011;45751;51.380;10.326;2023-06-22T07:04:15;19.70;;;11.65;;
59880;SDS011;45751;51.380;10.326;2023-06-22T07:06:42;19.52;;;10.68;;
59880;SDS011;45751;51.380;10.326;2023-06-22T07:09:09;23.52;;;12.63;;
59880;SDS011;45751;51.380;10.326;2023-06-22T07:11:36;21.20;;;11.50;;
59880;SDS011;45751;51.380;10.326;2023-06-22T07:14:03;22.05;;;12.85;;
59880;SDS011;45751;51.380;10.326;2023-06-22T07:16:30;21.75;;;12.48;;
59880;SDS011;45751;51.380;10.326;2023-06-22T07:18:58;19.65;;;11.50;;
59880;SDS011;45751;51.380;10.326;2023-06-22T07:21:24;19.92;;;10.82;;
59880;SDS011;45751;51.380;10.326;2023-06-22T07:23:51;16.73;;;10.30;;
59880;SDS011;45751;51.380;10.326;2023-06-22T07:26:19;19.02;;;10.45;;
59880;SDS011;45751;51.380;10.326;2023-06-22T07:28:45;18.27;;;10.63;;
59880;SDS011;45751;51.380;10.326;2023-06-22T07:31:12;18.70;;;10.98;;
59880;SDS011;45751;51.380;10.326;2023-06-22T07:33:39;18.73;;;10.95;;
59880;SDS011;45751;51.380;10.326;2023-06-22T07:36:06;20.52;;;11.68;;
59880;SDS011;45751;51.380;10.326;2023-06-22T07:38:34;22.75;;;12.73;;
59880;SDS011;45751;51.380;10.326;2023-06-22T07:41:01;28.05;;;16.05;;
59880;SDS011;45751;51.380;10.326;2023-06-22T07:43:31;21.80;;;14.15;;
59880;SDS011;45751;51.380;10.326;2023-06-22T07:46:00;26.92;;;12.55;;
59880;SDS011;45751;51.380;10.326;2023-06-22T07:48:27;20.23;;;11.57;;
59880;SDS011;45751;51.380;10.326;2023-06-22T07:50:55;20.88;;;11.38;;
59880;SDS011;45751;51.380;10.326;2023-06-22T07:53:22;23.65;;;11.43;;
59880;SDS011;45751;51.380;10.326;2023-06-22T07:55:49;28.73;;;19.13;;
59880;SDS011;45751;51.380;10.326;2023-06-22T07:58:16;36.60;;;25.25;;
59880;SDS011;45751;51.380;10.326;2023-06-22T08:00:45;28.85;;;16.75;;
59880;SDS011;45751;51.380;10.326;2023-06-22T08:03:13;27.27;;;17.90;;
59880;SDS011;45751;51.380;10.326;2023-06-22T08:05:40;28.83;;;17.38;;
59880;SDS011;45751;51.380;10.326;2023-06-22T08:08:07;30.88;;;18.15;;
59880;SDS011;45751;51.380;10.326;2023-06-22T08:10:34;24.48;;;13.45;;
59880;SDS011;45751;51.380;10.326;2023-06-22T08:13:02;21.52;;;12.38;;
59880;SDS011;45751;51.380;10.326;2023-06-22T08:15:29;17.50;;;10.77;;
59880;SDS011;45751;51.380;10.326;2023-06-22T08:17:56;18.05;;;10.80;;
59880;SDS011;45751;51.380;10.326;2023-06-22T08:20:24;22.05;;;12.27;;
59880;SDS011;45751;51.380;10.326;2023-06-22T08:22:53;19.10;;;10.75;;
59880;SDS011;45751;51.380;10.326;2023-06-22T08:25:20;18.45;;;11.63;;
59880;SDS011;45751;51.380;10.326;2023-06-22T08:27:47;18.17;;;11.43;;
59880;SDS011;45751;51.380;10.326;2023-06-22T08:30:15;22.88;;;13.23;;
59880;SDS011;45751;51.380;10.326;2023-06-22T08:32:42;23.10;;;14.35;;
59880;SDS011;45751;51.380;10.326;2023-06-22T08:35:09;19.70;;;12.02;;
59880;SDS011;45751;51.380;10.326;2023-06-22T08:37:36;17.85;;;10.82;;
59880;SDS011;45751;51.380;10.326;2023-06-22T08:40:06;20.05;;;11.63;;
59880;SDS011;45751;51.380;10.326;2023-06-22T08:42:39;20.02;;;11.48;;
59880;SDS011;45751;51.380;10.326;2023-06-22T08:45:07;18.08;;;10.88;;
59880;SDS011;45751;51.380;10.326;2023-06-22T08:47:34;20.67;;;11.65;;
59880;SDS011;45751;51.380;10.326;2023-06-22T08:50:01;22.52;;;11.43;;
59880;SDS011;45751;51.380;10.326;2023-06-22T08:52:29;22.92;;;14.20;;
59880;SDS011;45751;51.380;10.326;2023-06-22T08:54:56;22.30;;;13.85;;
59880;SDS011;45751;51.380;10.326;2023-06-22T08:57:25;31.83;;;19.98;;
59880;SDS011;45751;51.380;10.326;2023-06-22T08:59:52;24.52;;;13.52;;
59880;SDS011;45751;51.380;10.326;2023-06-22T09:02:19;18.80;;;11.77;;
59880;SDS011;45751;51.380;10.326;2023-06-22T09:04:46;17.27;;;9.73;;
59880;SDS011;45751;51.380;10.326;2023-06-22T09:07:13;17.27;;;10.32;;
59880;SDS011;45751;51.380;10.326;2023-06-22T09:09:40;17.02;;;10.00;;
59880;SDS011;45751;51.380;10.326;2023-06-22T09:12:07;15.55;;;10.23;;
59880;SDS011;45751;51.380;10.326;2023-06-22T09:14:35;17.65;;;10.18;;
59880;SDS011;45751;51.380;10.326;2023-06-22T09:17:02;20.40;;;12.52;;
59880;SDS011;45751;51.380;10.326;2023-06-22T09:19:29;17.38;;;10.10;;
59880;SDS011;45751;51.380;10.326;2023-06-22T09:21:55;28.75;;;18.15;;
59880;SDS011;45751;51.380;10.326;2023-06-22T09:24:22;20.23;;;12.43;;
59880;SDS011;45751;51.380;10.326;2023-06-22T09:26:49;16.42;;;7.97;;
59880;SDS011;45751;51.380;10.326;2023-06-22T09:29:17;14.98;;;8.68;;
59880;SDS011;45751;51.380;10.326;2023-06-22T09:31:44;13.52;;;7.15;;
59880;SDS011;45751;51.380;10.326;2023-06-22T09:34:11;14.80;;;8.32;;
59880;SDS011;45751;51.380;10.326;2023-06-22T09:36:38;15.63;;;7.68;;
59880;SDS011;45751;51.380;10.326;2023-06-22T09:39:06;18.23;;;9.02;;
59880;SDS011;45751;51.380;10.326;2023-06-22T09:41:33;16.35;;;10.35;;
59880;SDS011;45751;51.380;10.326;2023-06-22T09:43:59;17.05;;;8.55;;
59880;SDS011;45751;51.380;10.326;2023-06-22T09:46:26;12.55;;;7.15;;
59880;SDS011;45751;51.380;10.326;2023-06-22T09:48:54;13.68;;;7.43;;
59880;SDS011;45751;51.380;10.326;2023-06-22T09:51:21;12.88;;;7.05;;
59880;SDS011;45751;51.380;10.326;2023-06-22T09:53:50;13.27;;;7.00;;
59880;SDS011;45751;51.380;10.326;2023-06-22T09:56:17;13.20;;;7.07;;
59880;SDS011;45751;51.380;10.326;2023-06-22T09:58:45;15.98;;;7.07;;
59880;SDS011;45751;51.380;10.326;2023-06-22T10:01:13;12.23;;;6.18;;
59880;SDS011;45751;51.380;10.326;2023-06-22T10:03:42;14.43;;;7.23;;
59880;SDS011;45751;51.380;10.326;2023-06-22T10:06:09;12.05;;;6.90;;
59880;SDS011;45751;51.380;10.326;2023-06-22T10:08:36;13.18;;;7.05;;
59880;SDS011;45751;51.380;10.326;2023-06-22T10:11:04;15.30;;;6.95;;
59880;SDS011;45751;51.380;10.326;2023-06-22T10:13:31;13.20;;;6.80;;
59880;SDS011;45751;51.380;10.326;2023-06-22T10:15:58;11.98;;;6.55;;
59880;SDS011;45751;51.380;10.326;2023-06-22T10:18:24;12.27;;;7.15;;
59880;SDS011;45751;51.380;10.326;2023-06-22T10:20:51;14.35;;;8.88;;
59880;SDS011;45751;51.380;10.326;2023-06-22T10:23:19;14.65;;;8.48;;
59880;SDS011;45751;51.380;10.326;2023-06-22T10:25:46;12.45;;;7.28;;
59880;SDS011;45751;51.380;10.326;2023-06-22T10:28:13;14.63;;;7.07;;
59880;SDS011;45751;51.380;10.326;2023-06-22T10:30:41;12.95;;;7.10;;
59880;SDS011;45751;51.380;10.326;2023-06-22T10:33:11;13.23;;;7.38;;
59880;SDS011;45751;51.380;10.326;2023-06-22T10:35:38;13.32;;;7.03;;
59880;SDS011;45751;51.380;10.326;2023-06-22T10:38:05;11.77;;;6.63;;
59880;SDS011;45751;51.380;10.326;2023-06-22T10:40:33;14.23;;;7.00;;
59880;SDS011;45751;51.380;10.326;2023-06-22T10:43:00;11.45;;;6.45;;
59880;SDS011;45751;51.380;10.326;2023-06-22T10:45:27;12.05;;;6.40;;
59880;SDS011;45751;51.380;10.326;2023-06-22T10:47:55;11.77;;;6.47;;
59880;SDS011;45751;51.380;10.326;2023-06-22T10:50:22;11.82;;;6.60;;
59880;SDS011;45751;51.380;10.326;2023-06-22T10:52:51;12.32;;;6.60;;
59880;SDS011;45751;51.380;10.326;2023-06-22T10:55:18;13.93;;;6.15;;
59880;SDS011;45751;51.380;10.326;2023-06-22T10:57:45;11.35;;;5.93;;
59880;SDS011;45751;51.380;10.326;2023-06-22T11:00:14;14.10;;;6.55;;
59880;SDS011;45751;51.380;10.326;2023-06-22T11:02:42;12.13;;;6.85;;
59880;SDS011;45751;51.380;10.326;2023-06-22T11:05:10;13.35;;;6.43;;
59880;SDS011;45751;51.380;10.326;2023-06-22T11:07:37;12.43;;;6.70;;
59880;SDS011;45751;51.380;10.326;2023-06-22T11:10:11;11.77;;;6.55;;
59880;SDS011;45751;51.380;10.326;2023-06-22T11:12:38;11.02;;;6.80;;
59880;SDS011;45751;51.380;10.326;2023-06-22T11:15:06;11.10;;;6.22;;
59880;SDS011;45751;51.380;10.326;2023-06-22T11:17:33;13.52;;;6.38;;
59880;SDS011;45751;51.380;10.326;2023-06-22T11:20:01;11.80;;;6.70;;
59880;SDS011;45751;51.380;10.326;2023-06-22T11:22:30;10.18;;;5.85;;
59880;SDS011;45751;51.380;10.326;2023-06-22T11:24:59;11.98;;;6.45;;
59880;SDS011;45751;51.380;10.326;2023-06-22T11:27:26;10.85;;;6.43;;
59880;SDS011;45751;51.380;10.326;2023-06-22T11:29:54;10.65;;;6.35;;
59880;SDS011;45751;51.380;10.326;2023-06-22T11:32:21;10.57;;;6.05;;
59880;SDS011;45751;51.380;10.326;2023-06-22T11:34:48;16.58;;;6.63;;
59880;SDS011;45751;51.380;10.326;2023-06-22T11:37:15;11.70;;;6.07;;
59880;SDS011;45751;51.380;10.326;2023-06-22T11:39:42;12.02;;;6.75;;
59880;SDS011;45751;51.380;10.326;2023-06-22T11:42:19;15.05;;;7.20;;
59880;SDS011;45751;51.380;10.326;2023-06-22T11:44:45;13.65;;;7.05;;
59880;SDS011;45751;51.380;10.326;2023-06-22T11:47:12;11.52;;;6.82;;
59880;SDS011;45751;51.380;10.326;2023-06-22T11:49:39;12.57;;;7.65;;
59880;SDS011;45751;51.380;10.326;2023-06-22T11:52:07;15.52;;;9.38;;
59880;SDS011;45751;51.380;10.326;2023-06-22T11:54:34;14.77;;;7.65;;
59880;SDS011;45751;51.380;10.326;2023-06-22T11:57:01;11.32;;;7.20;;
59880;SDS011;45751;51.380;10.326;2023-06-22T11:59:28;13.15;;;7.10;;
59880;SDS011;45751;51.380;10.326;2023-06-22T12:01:56;12.38;;;6.70;;
59880;SDS011;45751;51.380;10.326;2023-06-22T12:04:24;14.23;;;7.22;;
59880;SDS011;45751;51.380;10.326;2023-06-22T12:06:51;12.48;;;7.28;;
59880;SDS011;45751;51.380;10.326;2023-06-22T12:09:18;14.20;;;8.30;;
59880;SDS011;45751;51.380;10.326;2023-06-22T12:11:45;13.35;;;7.10;;
59880;SDS011;45751;51.380;10.326;2023-06-22T12:14:12;15.07;;;7.88;;
59880;SDS011;45751;51.380;10.326;2023-06-22T12:16:39;12.48;;;7.82;;
59880;SDS011;45751;51.380;10.326;2023-06-22T12:19:06;12.75;;;7.50;;
59880;SDS011;45751;51.380;10.326;2023-06-22T12:21:32;13.38;;;7.95;;
59880;SDS011;45751;51.380;10.326;2023-06-22T12:23:59;14.85;;;7.85;;
59880;SDS011;45751;51.380;10.326;2023-06-22T12:26:26;12.52;;;7.25;;
59880;SDS011;45751;51.380;10.326;2023-06-22T12:28:53;13.23;;;7.88;;
59880;SDS011;45751;51.380;10.326;2023-06-22T12:31:20;12.32;;;8.50;;
59880;SDS011;45751;51.380;10.326;2023-06-22T12:33:47;13.25;;;7.57;;
59880;SDS011;45751;51.380;10.326;2023-06-22T12:36:14;15.48;;;8.82;;
59880;SDS011;45751;51.380;10.326;2023-06-22T12:38:42;13.30;;;9.00;;
59880;SDS011;45751;51.380;10.326;2023-06-22T12:41:09;13.85;;;8.02;;
59880;SDS011;45751;51.380;10.326;2023-06-22T12:43:36;14.30;;;8.82;;
59880;SDS011;45751;51.380;10.326;2023-06-22T12:46:03;13.98;;;8.35;;
59880;SDS011;45751;51.380;10.326;2023-06-22T12:48:30;13.98;;;8.27;;
59880;SDS011;45751;51.380;10.326;2023-06-22T12:50:56;14.85;;;8.13;;
59880;SDS011;45751;51.380;10.326;2023-06-22T12:53:23;12.13;;;8.30;;
59880;SDS011;45751;51.380;10.326;2023-06-22T12:55:50;12.70;;;8.02;;
59880;SDS011;45751;51.380;10.326;2023-06-22T12:58:17;12.82;;;8.55;;
59880;SDS011;45751;51.380;10.326;2023-06-22T13:00:44;13.27;;;8.25;;
59880;SDS011;45751;51.380;10.326;2023-06-22T13:03:11;13.90;;;7.30;;
59880;SDS011;45751;51.380;10.326;2023-06-22T13:05:38;12.00;;;7.47;;
59880;SDS011;45751;51.380;10.326;2023-06-22T13:08:05;11.55;;;8.00;;
59880;SDS011;45751;51.380;10.326;2023-06-22T13:10:32;12.50;;;7.20;;
59880;SDS011;45751;51.380;10.326;2023-06-22T13:12:59;14.13;;;7.18;;
59880;SDS011;45751;51.380;10.326;2023-06-22T13:15:28;17.48;;;7.80;;
59880;SDS011;45751;51.380;10.326;2023-06-22T13:17:55;13.10;;;8.10;;
59880;SDS011;45751;51.380;10.326;2023-06-22T13:20:22;12.55;;;7.72;;
59880;SDS011;45751;51.380;10.326;2023-06-22T13:22:49;12.95;;;7.85;;
59880;SDS011;45751;51.380;10.326;2023-06-22T13:25:16;13.40;;;7.82;;
59880;SDS011;45751;51.380;10.326;2023-06-22T13:27:45;12.75;;;7.75;;
59880;SDS011;45751;51.380;10.326;2023-06-22T13:30:12;12.82;;;7.85;;
59880;SDS011;45751;51.380;10.326;2023-06-22T13:32:40;11.80;;;7.35;;
59880;SDS011;45751;51.380;10.326;2023-06-22T13:35:09;13.73;;;8.27;;
59880;SDS011;45751;51.380;10.326;2023-06-22T13:37:37;12.85;;;7.40;;
59880;SDS011;45751;51.380;10.326;2023-06-22T13:40:04;16.42;;;11.38;;
59880;SDS011;45751;51.380;10.326;2023-06-22T13:42:33;12.40;;;7.65;;
59880;SDS011;45751;51.380;10.326;2023-06-22T13:45:00;11.52;;;7.40;;
59880;SDS011;45751;51.380;10.326;2023-06-22T13:47:27;12.25;;;6.93;;
59880;SDS011;45751;51.380;10.326;2023-06-22T13:49:56;14.00;;;7.07;;
59880;SDS011;45751;51.380;10.326;2023-06-22T13:52:24;12.55;;;7.35;;
59880;SDS011;45751;51.380;10.326;2023-06-22T13:54:51;12.30;;;7.40;;
59880;SDS011;45751;51.380;10.326;2023-06-22T13:57:18;11.68;;;7.65;;
59880;SDS011;45751;51.380;10.326;2023-06-22T13:59:45;12.07;;;6.93;;
59880;SDS011;45751;51.380;10.326;2023-06-22T14:02:12;11.45;;;7.30;;
59880;SDS011;45751;51.380;10.326;2023-06-22T14:04:39;12.50;;;7.93;;
59880;SDS011;45751;51.380;10.326;2023-06-22T14:07:06;11.50;;;7.65;;
59880;SDS011;45751;51.380;10.326;2023-06-22T14:09:33;15.52;;;7.80;;
59880;SDS011;45751;51.380;10.326;2023-06-22T14:12:03;11.40;;;7.05;;
59880;SDS011;45751;51.380;10.326;2023-06-22T14:14:32;12.45;;;7.85;;
59880;SDS011;45751;51.380;10.326;2023-06-22T14:16:59;11.00;;;7.15;;
59880;SDS011;45751;51.380;10.326;2023-06-22T14:19:26;13.20;;;7.53;;
59880;SDS011;45751;51.380;10.326;2023-06-22T14:21:54;10.85;;;6.80;;
59880;SDS011;45751;51.380;10.326;2023-06-22T14:24:21;10.48;;;6.38;;
59880;SDS011;45751;51.380;10.326;2023-06-22T14:26:51;11.43;;;7.53;;
59880;SDS011;45751;51.380;10.326;2023-06-22T14:29:19;12.43;;;7.53;;
59880;SDS011;45751;51.380;10.326;2023-06-22T14:31:46;10.90;;;7.13;;
59880;SDS011;45751;51.380;10.326;2023-06-22T14:34:15;12.13;;;7.25;;